CheckWX is a tool to help pilots better visualize weather data.  It is not intended as a substitute for an official pre-flight weather briefing.

21:01:08 UTC

KMKE METAR
General Mitchell International Airport
Milwaukee, Wisconsin, USA
Current

9 mins ago

KMKE 232052Z 28012KT 10SM FEW055 FEW250 24/08 A2999 RMK AO2 WSHFT 2019 SLP152 T02390083 51007
Observed
May-23 @ 20:52 UTC
Wind
  • 280° at 12 KTS
Visibility
10 SM
Flight Rules
VFR
Cloud Levels
  • Few at 5,500' AGL
  • Few at 25,000' AGL
Temperature
24°C / 75°F
Dewpoint
C / 46°F
Humidity
36%
Altimeter
29.99" Hg
Pressure
1015.62 hPa
Previous

22 mins ago

KMKE 232039Z 28014G22KT 10SM FEW055 FEW250 24/08 A2999 RMK AO2 WSHFT 2019 T02390083
Observed
May-23 @ 20:39 UTC
Wind
  • 280° at 14 KTS
  • Gusting to 22 KTS
Visibility
10 SM
Flight Rules
VFR
Cloud Levels
  • Few at 5,500' AGL
  • Few at 25,000' AGL
Temperature
24°C / 75°F
Dewpoint
C / 46°F
Humidity
36%
Altimeter
29.99" Hg
Pressure
1015.62 hPa
Previous

2 hours ago

KMKE 231852Z 26013G24KT 10SM FEW047 FEW250 23/09 A2998 RMK AO2 PK WND 25031/1820 SLP149 T02280089
Observed
May-23 @ 18:52 UTC
Wind
  • 260° at 13 KTS
  • Gusting to 24 KTS
Visibility
10 SM
Flight Rules
VFR
Cloud Levels
  • Few at 4,700' AGL
  • Few at 25,000' AGL
Temperature
23°C / 73°F
Dewpoint
C / 48°F
Humidity
41%
Altimeter
29.98" Hg
Pressure
1015.22 hPa